BEL5RA EBBR-LOWW
Flight info
| Callsign | BEL5RA |
|---|---|
| Flight time | 1h 29m |
| Altitude | 35000 |
| Route | SOPOK2X SOPOK Y863 ROPUV L607 EMGOD DCT BOMBI DCT BARSU DCT EKSOS DCT LULAR DCT RUDAP DCT BUDEX BUDEX2W |
| Aircraft | A319/M-SDE3FGHIRWY/LB1 |
Departure
| Time | 2026-05-05 11:46 |
|---|---|
| Airport | Brussels Airport (EBBR) |
Arrival
| Time | 2026-05-05 13:16 |
|---|---|
| Airport | Vienna International Airport (LOWW) |
| Time | Latitude | Longitude | Altitude | Speed | Heading |
|---|---|---|---|---|---|
| 2026-05-05 11:04 | 50.90234 | 4.48407 | 185 ft | 0 kts | 335° |
| 2026-05-05 11:39 | 50.90232 | 4.48408 | 184 ft | 2 kts | 335° |
| 2026-05-05 11:39 | 50.90217 | 4.48419 | 199 ft | 2 kts | 334° |
| 2026-05-05 11:39 | 50.90202 | 4.48430 | 198 ft | 2 kts | 335° |
| 2026-05-05 11:40 | 50.90187 | 4.48441 | 201 ft | 2 kts | 335° |
| 2026-05-05 11:40 | 50.90172 | 4.48449 | 193 ft | 2 kts | 9° |
| 2026-05-05 11:40 | 50.90156 | 4.48441 | 192 ft | 2 kts | 36° |
| 2026-05-05 11:40 | 50.90145 | 4.48427 | 201 ft | 1 kts | 64° |
| 2026-05-05 11:41 | 50.90145 | 4.48425 | 201 ft | 0 kts | 66° |
| 2026-05-05 11:41 | 50.90147 | 4.48435 | 201 ft | 4 kts | 66° |
| 2026-05-05 11:41 | 50.90179 | 4.48546 | 191 ft | 14 kts | 65° |
| 2026-05-05 11:42 | 50.90220 | 4.48688 | 187 ft | 15 kts | 65° |
| 2026-05-05 11:42 | 50.90264 | 4.48837 | 189 ft | 15 kts | 65° |
| 2026-05-05 11:42 | 50.90307 | 4.48985 | 188 ft | 15 kts | 65° |
| 2026-05-05 11:42 | 50.90351 | 4.49139 | 194 ft | 15 kts | 66° |
| 2026-05-05 11:43 | 50.90391 | 4.49285 | 187 ft | 14 kts | 77° |
| 2026-05-05 11:43 | 50.90326 | 4.49387 | 184 ft | 14 kts | 140° |
| 2026-05-05 11:43 | 50.90237 | 4.49387 | 184 ft | 13 kts | 194° |
| 2026-05-05 11:43 | 50.90141 | 4.49348 | 192 ft | 16 kts | 195° |
| 2026-05-05 11:44 | 50.90024 | 4.49298 | 185 ft | 19 kts | 194° |
| 2026-05-05 11:44 | 50.89898 | 4.49247 | 185 ft | 19 kts | 194° |
| 2026-05-05 11:44 | 50.89772 | 4.49196 | 191 ft | 19 kts | 194° |
| 2026-05-05 11:44 | 50.89648 | 4.49147 | 184 ft | 18 kts | 183° |
| 2026-05-05 11:45 | 50.89533 | 4.49174 | 197 ft | 17 kts | 194° |
| 2026-05-05 11:45 | 50.89417 | 4.49126 | 184 ft | 17 kts | 195° |
| 2026-05-05 11:45 | 50.89319 | 4.49158 | 191 ft | 15 kts | 142° |
| 2026-05-05 11:45 | 50.89243 | 4.49292 | 183 ft | 19 kts | 124° |
| 2026-05-05 11:46 | 50.89254 | 4.49548 | 188 ft | 42 kts | 70° |
| 2026-05-05 11:46 | 50.89439 | 4.50345 | 193 ft | 109 kts | 70° |
| 2026-05-05 11:46 | 50.89759 | 4.51730 | 327 ft | 146 kts | 67° |
| 2026-05-05 11:46 | 50.90104 | 4.53245 | 926 ft | 145 kts | 64° |
| 2026-05-05 11:47 | 50.90542 | 4.54678 | 1546 ft | 144 kts | 61° |
| 2026-05-05 11:47 | 50.91011 | 4.56100 | 2040 ft | 152 kts | 60° |
| 2026-05-05 11:47 | 50.91552 | 4.57711 | 2327 ft | 174 kts | 60° |
| 2026-05-05 11:47 | 50.92149 | 4.59485 | 2545 ft | 196 kts | 60° |
| 2026-05-05 11:48 | 50.93561 | 4.63703 | 3001 ft | 239 kts | 63° |
| 2026-05-05 11:48 | 50.94132 | 4.66288 | 3483 ft | 250 kts | 71° |
| 2026-05-05 11:48 | 50.94638 | 4.68914 | 4118 ft | 253 kts | 72° |
| 2026-05-05 11:49 | 50.95148 | 4.71602 | 4783 ft | 256 kts | 73° |
| 2026-05-05 11:49 | 50.95520 | 4.74411 | 5398 ft | 261 kts | 87° |
| 2026-05-05 11:49 | 50.95263 | 4.77277 | 5960 ft | 267 kts | 108° |
| 2026-05-05 11:49 | 50.94351 | 4.79859 | 6549 ft | 273 kts | 129° |
| 2026-05-05 11:50 | 50.92954 | 4.81874 | 7105 ft | 277 kts | 139° |
| 2026-05-05 11:50 | 50.91437 | 4.83844 | 7692 ft | 280 kts | 139° |
| 2026-05-05 11:50 | 50.89922 | 4.85806 | 8269 ft | 283 kts | 140° |
| 2026-05-05 11:50 | 50.88220 | 4.87397 | 8836 ft | 288 kts | 156° |
| 2026-05-05 11:51 | 50.86284 | 4.88259 | 9400 ft | 292 kts | 171° |
| 2026-05-05 11:51 | 50.84247 | 4.88583 | 9946 ft | 296 kts | 173° |
| 2026-05-05 11:51 | 50.82156 | 4.88901 | 10170 ft | 310 kts | 174° |
| 2026-05-05 11:51 | 50.79958 | 4.89241 | 10290 ft | 324 kts | 173° |
| 2026-05-05 11:52 | 50.77687 | 4.89595 | 10539 ft | 330 kts | 173° |
| 2026-05-05 11:52 | 50.75392 | 4.89955 | 10905 ft | 332 kts | 173° |
| 2026-05-05 11:52 | 50.73087 | 4.90316 | 11281 ft | 334 kts | 173° |
| 2026-05-05 11:52 | 50.70789 | 4.90827 | 11618 ft | 334 kts | 163° |
| 2026-05-05 11:53 | 50.68634 | 4.92163 | 11953 ft | 333 kts | 148° |
| 2026-05-05 11:53 | 50.66782 | 4.94312 | 12294 ft | 331 kts | 134° |
| 2026-05-05 11:53 | 50.65336 | 4.97121 | 12600 ft | 331 kts | 120° |
| 2026-05-05 11:53 | 50.64379 | 5.00412 | 12894 ft | 332 kts | 107° |
| 2026-05-05 11:54 | 50.63674 | 5.03876 | 13222 ft | 332 kts | 106° |
| 2026-05-05 11:54 | 50.62966 | 5.07335 | 13559 ft | 333 kts | 107° |
| 2026-05-05 11:54 | 50.62249 | 5.10821 | 13833 ft | 335 kts | 107° |
| 2026-05-05 11:54 | 50.61526 | 5.14315 | 14068 ft | 337 kts | 108° |
| 2026-05-05 11:55 | 50.60792 | 5.17844 | 14289 ft | 340 kts | 108° |
| 2026-05-05 11:55 | 50.60055 | 5.21382 | 14567 ft | 340 kts | 108° |
| 2026-05-05 11:55 | 50.59318 | 5.24926 | 14802 ft | 342 kts | 108° |
| 2026-05-05 11:55 | 50.58551 | 5.28480 | 15014 ft | 344 kts | 109° |
| 2026-05-05 11:56 | 50.57742 | 5.32023 | 15272 ft | 344 kts | 110° |
| 2026-05-05 11:56 | 50.56912 | 5.35560 | 15510 ft | 345 kts | 111° |
| 2026-05-05 11:56 | 50.56072 | 5.39100 | 15751 ft | 346 kts | 111° |
| 2026-05-05 11:56 | 50.55232 | 5.42649 | 15978 ft | 348 kts | 111° |
| 2026-05-05 11:57 | 50.54387 | 5.46225 | 16189 ft | 349 kts | 111° |
| 2026-05-05 11:57 | 50.53545 | 5.49809 | 16411 ft | 349 kts | 111° |
| 2026-05-05 11:57 | 50.52707 | 5.53394 | 16669 ft | 351 kts | 111° |
| 2026-05-05 11:57 | 50.51861 | 5.56998 | 16919 ft | 352 kts | 112° |
| 2026-05-05 11:58 | 50.50703 | 5.60380 | 17077 ft | 353 kts | 128° |
| 2026-05-05 11:58 | 50.48956 | 5.63065 | 17274 ft | 353 kts | 146° |
| 2026-05-05 11:58 | 50.46766 | 5.64777 | 17464 ft | 353 kts | 160° |
| 2026-05-05 11:58 | 50.44466 | 5.66138 | 17636 ft | 354 kts | 160° |
| 2026-05-05 11:59 | 50.42158 | 5.67492 | 17810 ft | 355 kts | 160° |
| 2026-05-05 11:59 | 50.39842 | 5.68847 | 17986 ft | 356 kts | 160° |
| 2026-05-05 11:59 | 50.37519 | 5.70208 | 18140 ft | 357 kts | 160° |
| 2026-05-05 11:59 | 50.35191 | 5.71571 | 18297 ft | 358 kts | 160° |
| 2026-05-05 12:00 | 50.32859 | 5.72934 | 18442 ft | 358 kts | 160° |
| 2026-05-05 12:00 | 50.30528 | 5.74306 | 18590 ft | 358 kts | 158° |
| 2026-05-05 12:00 | 50.28336 | 5.76150 | 18718 ft | 360 kts | 146° |
| 2026-05-05 12:00 | 50.26446 | 5.78717 | 18881 ft | 361 kts | 134° |
| 2026-05-05 12:01 | 50.24954 | 5.81871 | 19041 ft | 363 kts | 122° |
| 2026-05-05 12:01 | 50.23928 | 5.85488 | 19173 ft | 367 kts | 109° |
| 2026-05-05 12:01 | 50.23271 | 5.89352 | 19299 ft | 368 kts | 107° |
| 2026-05-05 12:01 | 50.22626 | 5.93227 | 19428 ft | 369 kts | 107° |
| 2026-05-05 12:02 | 50.21971 | 5.97104 | 19559 ft | 370 kts | 107° |
| 2026-05-05 12:02 | 50.21310 | 6.00982 | 19674 ft | 370 kts | 107° |
| 2026-05-05 12:02 | 50.20646 | 6.04870 | 19795 ft | 371 kts | 107° |
| 2026-05-05 12:02 | 50.19978 | 6.08765 | 19913 ft | 372 kts | 107° |
| 2026-05-05 12:03 | 50.19309 | 6.12662 | 20036 ft | 372 kts | 107° |
| 2026-05-05 12:03 | 50.18667 | 6.16584 | 20159 ft | 374 kts | 103° |
| 2026-05-05 12:03 | 50.18386 | 6.20624 | 20283 ft | 377 kts | 93° |
| 2026-05-05 12:03 | 50.18553 | 6.24721 | 20405 ft | 379 kts | 86° |
| 2026-05-05 12:04 | 50.18827 | 6.28809 | 20521 ft | 379 kts | 86° |
| 2026-05-05 12:04 | 50.19086 | 6.32906 | 20656 ft | 379 kts | 87° |
| 2026-05-05 12:04 | 50.19340 | 6.37004 | 20778 ft | 379 kts | 87° |
| 2026-05-05 12:04 | 50.19589 | 6.41107 | 20893 ft | 380 kts | 87° |
| 2026-05-05 12:05 | 50.19833 | 6.45211 | 21018 ft | 380 kts | 87° |
| 2026-05-05 12:05 | 50.20073 | 6.49310 | 21135 ft | 380 kts | 87° |
| 2026-05-05 12:05 | 50.20317 | 6.53423 | 21263 ft | 380 kts | 87° |
| 2026-05-05 12:05 | 50.20562 | 6.57533 | 21404 ft | 380 kts | 87° |
| 2026-05-05 12:06 | 50.20811 | 6.61648 | 21534 ft | 381 kts | 87° |
| 2026-05-05 12:06 | 50.21061 | 6.65767 | 21665 ft | 382 kts | 87° |
| 2026-05-05 12:06 | 50.21313 | 6.69893 | 21795 ft | 382 kts | 87° |
| 2026-05-05 12:06 | 50.21562 | 6.74015 | 21938 ft | 382 kts | 87° |
| 2026-05-05 12:07 | 50.21809 | 6.78138 | 22071 ft | 381 kts | 87° |
| 2026-05-05 12:07 | 50.22053 | 6.82260 | 22209 ft | 381 kts | 87° |
| 2026-05-05 12:07 | 50.22124 | 6.86383 | 22344 ft | 378 kts | 96° |
| 2026-05-05 12:07 | 50.21912 | 6.90474 | 22466 ft | 378 kts | 97° |
| 2026-05-05 12:08 | 50.21697 | 6.94560 | 22601 ft | 378 kts | 97° |
| 2026-05-05 12:08 | 50.21483 | 6.98651 | 22736 ft | 378 kts | 97° |
| 2026-05-05 12:08 | 50.21269 | 7.02742 | 22872 ft | 378 kts | 97° |
| 2026-05-05 12:08 | 50.21055 | 7.06829 | 23006 ft | 378 kts | 97° |
| 2026-05-05 12:09 | 50.20839 | 7.10918 | 23145 ft | 378 kts | 97° |
| 2026-05-05 12:09 | 50.20620 | 7.15007 | 23283 ft | 378 kts | 97° |
| 2026-05-05 12:09 | 50.20400 | 7.19105 | 23418 ft | 379 kts | 97° |
| 2026-05-05 12:09 | 50.20179 | 7.23200 | 23535 ft | 379 kts | 97° |
| 2026-05-05 12:10 | 50.19954 | 7.27299 | 23648 ft | 379 kts | 97° |
| 2026-05-05 12:10 | 50.19726 | 7.31396 | 23761 ft | 379 kts | 97° |
| 2026-05-05 12:10 | 50.19564 | 7.34112 | 23836 ft | 379 kts | 98° |
| 2026-05-05 12:10 | 50.19258 | 7.38190 | 23940 ft | 378 kts | 100° |
| 2026-05-05 12:11 | 50.18898 | 7.42248 | 24053 ft | 378 kts | 101° |
| 2026-05-05 12:11 | 50.18512 | 7.46303 | 24168 ft | 378 kts | 101° |
| 2026-05-05 12:11 | 50.18122 | 7.50357 | 24278 ft | 378 kts | 101° |
| 2026-05-05 12:11 | 50.17737 | 7.54408 | 24396 ft | 378 kts | 101° |
| 2026-05-05 12:12 | 50.17357 | 7.58461 | 24515 ft | 378 kts | 101° |
| 2026-05-05 12:12 | 50.16983 | 7.62516 | 24634 ft | 378 kts | 101° |
| 2026-05-05 12:12 | 50.16609 | 7.66619 | 24755 ft | 377 kts | 101° |
| 2026-05-05 12:12 | 50.16239 | 7.70676 | 24874 ft | 377 kts | 101° |
| 2026-05-05 12:13 | 50.15873 | 7.74669 | 24993 ft | 377 kts | 101° |
| 2026-05-05 12:13 | 50.15500 | 7.78710 | 25111 ft | 377 kts | 101° |
| 2026-05-05 12:13 | 50.15126 | 7.82754 | 25229 ft | 377 kts | 102° |
| 2026-05-05 12:13 | 50.14747 | 7.86849 | 25348 ft | 377 kts | 102° |
| 2026-05-05 12:14 | 50.14378 | 7.90836 | 25472 ft | 377 kts | 102° |
| 2026-05-05 12:14 | 50.13995 | 7.94931 | 25599 ft | 377 kts | 102° |
| 2026-05-05 12:14 | 50.13614 | 7.98963 | 25723 ft | 377 kts | 102° |
| 2026-05-05 12:14 | 50.13230 | 8.02998 | 25848 ft | 377 kts | 102° |
| 2026-05-05 12:15 | 50.12847 | 8.07037 | 25974 ft | 376 kts | 102° |
| 2026-05-05 12:15 | 50.12465 | 8.11070 | 26099 ft | 376 kts | 102° |
| 2026-05-05 12:15 | 50.12083 | 8.15101 | 26226 ft | 376 kts | 102° |
| 2026-05-05 12:15 | 50.11697 | 8.19126 | 26355 ft | 376 kts | 103° |
| 2026-05-05 12:16 | 50.11307 | 8.23151 | 26480 ft | 376 kts | 103° |
| 2026-05-05 12:16 | 50.10917 | 8.27175 | 26589 ft | 376 kts | 103° |
| 2026-05-05 12:16 | 50.10525 | 8.31201 | 26718 ft | 376 kts | 103° |
| 2026-05-05 12:16 | 50.10131 | 8.35223 | 26849 ft | 376 kts | 103° |
| 2026-05-05 12:17 | 50.09734 | 8.39251 | 26975 ft | 376 kts | 103° |
| 2026-05-05 12:17 | 50.09337 | 8.43279 | 27105 ft | 376 kts | 103° |
| 2026-05-05 12:17 | 50.08941 | 8.47312 | 27213 ft | 377 kts | 103° |
| 2026-05-05 12:17 | 50.08543 | 8.51343 | 27345 ft | 377 kts | 103° |
| 2026-05-05 12:18 | 50.08145 | 8.55373 | 27476 ft | 377 kts | 103° |
| 2026-05-05 12:18 | 50.07748 | 8.59400 | 27608 ft | 377 kts | 103° |
| 2026-05-05 12:18 | 50.07349 | 8.63431 | 27739 ft | 376 kts | 103° |
| 2026-05-05 12:18 | 50.06947 | 8.67456 | 27874 ft | 376 kts | 104° |
| 2026-05-05 12:19 | 50.06538 | 8.71478 | 28012 ft | 376 kts | 104° |
| 2026-05-05 12:19 | 50.06129 | 8.75499 | 28147 ft | 376 kts | 104° |
| 2026-05-05 12:19 | 50.05720 | 8.79521 | 28283 ft | 376 kts | 104° |
| 2026-05-05 12:19 | 50.05336 | 8.83551 | 28419 ft | 377 kts | 103° |
| 2026-05-05 12:20 | 50.05006 | 8.87597 | 28554 ft | 377 kts | 102° |
| 2026-05-05 12:20 | 50.04706 | 8.91652 | 28692 ft | 377 kts | 102° |
| 2026-05-05 12:20 | 50.04413 | 8.95699 | 28834 ft | 377 kts | 102° |
| 2026-05-05 12:20 | 50.04113 | 8.99745 | 28970 ft | 376 kts | 102° |
| 2026-05-05 12:21 | 50.03802 | 9.03780 | 29110 ft | 376 kts | 102° |
| 2026-05-05 12:21 | 50.03482 | 9.07813 | 29253 ft | 375 kts | 102° |
| 2026-05-05 12:21 | 50.03159 | 9.11834 | 29393 ft | 375 kts | 103° |
| 2026-05-05 12:21 | 50.02834 | 9.15858 | 29515 ft | 375 kts | 103° |
| 2026-05-05 12:22 | 50.02507 | 9.19876 | 29660 ft | 375 kts | 103° |
| 2026-05-05 12:22 | 50.02177 | 9.23895 | 29803 ft | 375 kts | 103° |
| 2026-05-05 12:22 | 50.01846 | 9.27914 | 29938 ft | 374 kts | 103° |
| 2026-05-05 12:22 | 50.01516 | 9.31928 | 30064 ft | 374 kts | 103° |
| 2026-05-05 12:23 | 50.01185 | 9.35942 | 30182 ft | 374 kts | 103° |
| 2026-05-05 12:23 | 50.00850 | 9.39950 | 30304 ft | 373 kts | 103° |
| 2026-05-05 12:23 | 50.00515 | 9.43944 | 30427 ft | 373 kts | 103° |
| 2026-05-05 12:23 | 50.00177 | 9.47936 | 30545 ft | 372 kts | 103° |
| 2026-05-05 12:24 | 49.99840 | 9.51918 | 30674 ft | 372 kts | 104° |
| 2026-05-05 12:24 | 49.99505 | 9.55897 | 30795 ft | 371 kts | 103° |
| 2026-05-05 12:24 | 49.99173 | 9.59873 | 30922 ft | 371 kts | 104° |
| 2026-05-05 12:24 | 49.98839 | 9.63845 | 31032 ft | 370 kts | 103° |
| 2026-05-05 12:25 | 49.98501 | 9.67802 | 31153 ft | 370 kts | 103° |
| 2026-05-05 12:25 | 49.98159 | 9.71760 | 31281 ft | 369 kts | 104° |
| 2026-05-05 12:25 | 49.97814 | 9.75707 | 31408 ft | 369 kts | 104° |
| 2026-05-05 12:25 | 49.97470 | 9.79656 | 31535 ft | 369 kts | 104° |
| 2026-05-05 12:26 | 49.97127 | 9.83601 | 31664 ft | 368 kts | 104° |
| 2026-05-05 12:26 | 49.96783 | 9.87543 | 31787 ft | 368 kts | 104° |
| 2026-05-05 12:26 | 49.96437 | 9.91484 | 31917 ft | 368 kts | 104° |
| 2026-05-05 12:26 | 49.96092 | 9.95414 | 32046 ft | 367 kts | 104° |
| 2026-05-05 12:27 | 49.95748 | 9.99337 | 32178 ft | 366 kts | 104° |
| 2026-05-05 12:27 | 49.95405 | 10.03246 | 32310 ft | 365 kts | 104° |
| 2026-05-05 12:27 | 49.95062 | 10.07146 | 32416 ft | 364 kts | 104° |
| 2026-05-05 12:27 | 49.94718 | 10.11033 | 32549 ft | 363 kts | 104° |
| 2026-05-05 12:28 | 49.94370 | 10.14906 | 32681 ft | 362 kts | 104° |
| 2026-05-05 12:28 | 49.94021 | 10.18773 | 32815 ft | 361 kts | 104° |
| 2026-05-05 12:28 | 49.93670 | 10.22625 | 32946 ft | 360 kts | 104° |
| 2026-05-05 12:28 | 49.93318 | 10.26459 | 33082 ft | 358 kts | 104° |
| 2026-05-05 12:29 | 49.92966 | 10.30285 | 33218 ft | 357 kts | 104° |
| 2026-05-05 12:29 | 49.92616 | 10.34090 | 33356 ft | 356 kts | 104° |
| 2026-05-05 12:29 | 49.92191 | 10.37845 | 33491 ft | 350 kts | 110° |
| 2026-05-05 12:29 | 49.91522 | 10.41439 | 33626 ft | 344 kts | 117° |
| 2026-05-05 12:30 | 49.90657 | 10.44872 | 33762 ft | 340 kts | 119° |
| 2026-05-05 12:30 | 49.89777 | 10.48263 | 33891 ft | 338 kts | 119° |
| 2026-05-05 12:30 | 49.88904 | 10.51633 | 33994 ft | 336 kts | 118° |
| 2026-05-05 12:30 | 49.88036 | 10.54986 | 34109 ft | 334 kts | 118° |
| 2026-05-05 12:31 | 49.87176 | 10.58309 | 34231 ft | 331 kts | 118° |
| 2026-05-05 12:31 | 49.86323 | 10.61605 | 34351 ft | 328 kts | 119° |
| 2026-05-05 12:31 | 49.85479 | 10.64865 | 34470 ft | 324 kts | 119° |
| 2026-05-05 12:31 | 49.84644 | 10.68090 | 34594 ft | 321 kts | 119° |
| 2026-05-05 12:32 | 49.83815 | 10.71278 | 34698 ft | 317 kts | 119° |
| 2026-05-05 12:32 | 49.82986 | 10.74443 | 34707 ft | 318 kts | 119° |
| 2026-05-05 12:32 | 49.82124 | 10.77676 | 34320 ft | 334 kts | 120° |
| 2026-05-05 12:32 | 49.81193 | 10.81075 | 33907 ft | 352 kts | 120° |
| 2026-05-05 12:33 | 49.80237 | 10.84633 | 33906 ft | 363 kts | 118° |
| 2026-05-05 12:33 | 49.79277 | 10.88316 | 33900 ft | 375 kts | 118° |
| 2026-05-05 12:33 | 49.78296 | 10.92124 | 33888 ft | 386 kts | 117° |
| 2026-05-05 12:33 | 49.77288 | 10.96035 | 33900 ft | 397 kts | 117° |
| 2026-05-05 12:34 | 49.75165 | 11.04163 | 33905 ft | 418 kts | 117° |
| 2026-05-05 12:34 | 49.72908 | 11.12677 | 33901 ft | 438 kts | 117° |
| 2026-05-05 12:35 | 49.70547 | 11.21556 | 33901 ft | 453 kts | 117° |
| 2026-05-05 12:35 | 49.68143 | 11.30580 | 33897 ft | 455 kts | 117° |
| 2026-05-05 12:36 | 49.65725 | 11.39609 | 33894 ft | 455 kts | 117° |
| 2026-05-05 12:36 | 49.63544 | 11.48812 | 33888 ft | 458 kts | 112° |
| 2026-05-05 12:37 | 49.61693 | 11.58234 | 33885 ft | 459 kts | 110° |
| 2026-05-05 12:37 | 49.59858 | 11.67646 | 33884 ft | 457 kts | 112° |
| 2026-05-05 12:38 | 49.57927 | 11.76963 | 33873 ft | 456 kts | 112° |
| 2026-05-05 12:38 | 49.55942 | 11.86248 | 33882 ft | 456 kts | 112° |
| 2026-05-05 12:39 | 49.53959 | 11.95535 | 33881 ft | 456 kts | 112° |
| 2026-05-05 12:39 | 49.51985 | 12.04819 | 33880 ft | 456 kts | 112° |
| 2026-05-05 12:40 | 49.50013 | 12.14101 | 33879 ft | 456 kts | 112° |
| 2026-05-05 12:40 | 49.48026 | 12.23382 | 33878 ft | 457 kts | 112° |
| 2026-05-05 12:41 | 49.46028 | 12.32650 | 33873 ft | 457 kts | 112° |
| 2026-05-05 12:41 | 49.44021 | 12.41916 | 33876 ft | 457 kts | 112° |
| 2026-05-05 12:42 | 49.42008 | 12.51173 | 33876 ft | 457 kts | 112° |
| 2026-05-05 12:42 | 49.39984 | 12.60426 | 33868 ft | 457 kts | 111° |
| 2026-05-05 12:43 | 49.37952 | 12.69688 | 33880 ft | 458 kts | 112° |
| 2026-05-05 12:43 | 49.35898 | 12.78943 | 33877 ft | 458 kts | 112° |
| 2026-05-05 12:44 | 49.33689 | 12.88097 | 33875 ft | 457 kts | 114° |
| 2026-05-05 12:44 | 49.31406 | 12.97201 | 33881 ft | 458 kts | 114° |
| 2026-05-05 12:45 | 49.29139 | 13.06313 | 33881 ft | 458 kts | 114° |
| 2026-05-05 12:45 | 49.26890 | 13.15428 | 33886 ft | 458 kts | 114° |
| 2026-05-05 12:46 | 49.24634 | 13.24536 | 33887 ft | 457 kts | 114° |
| 2026-05-05 12:46 | 49.23484 | 13.29129 | 33620 ft | 454 kts | 115° |
| 2026-05-05 12:46 | 49.22317 | 13.33594 | 33235 ft | 451 kts | 115° |
| 2026-05-05 12:47 | 49.21122 | 13.38025 | 32853 ft | 451 kts | 116° |
| 2026-05-05 12:47 | 49.19910 | 13.42446 | 32472 ft | 450 kts | 116° |
| 2026-05-05 12:47 | 49.18698 | 13.46848 | 32104 ft | 449 kts | 116° |
| 2026-05-05 12:47 | 49.17494 | 13.51236 | 31730 ft | 447 kts | 115° |
| 2026-05-05 12:48 | 49.16304 | 13.55601 | 31374 ft | 444 kts | 115° |
| 2026-05-05 12:48 | 49.15520 | 13.58484 | 31150 ft | 442 kts | 115° |
| 2026-05-05 12:48 | 49.14345 | 13.62808 | 30796 ft | 440 kts | 115° |
| 2026-05-05 12:48 | 49.13172 | 13.67113 | 30448 ft | 438 kts | 115° |
| 2026-05-05 12:49 | 49.12004 | 13.71395 | 30102 ft | 436 kts | 115° |
| 2026-05-05 12:49 | 49.10843 | 13.75662 | 29746 ft | 434 kts | 115° |
| 2026-05-05 12:49 | 49.09692 | 13.79909 | 29345 ft | 432 kts | 115° |
| 2026-05-05 12:49 | 49.08547 | 13.84126 | 28939 ft | 429 kts | 115° |
| 2026-05-05 12:50 | 49.07403 | 13.88314 | 28552 ft | 426 kts | 115° |
| 2026-05-05 12:50 | 49.06264 | 13.92466 | 28172 ft | 423 kts | 115° |
| 2026-05-05 12:50 | 49.05126 | 13.96590 | 27796 ft | 420 kts | 115° |
| 2026-05-05 12:50 | 49.03992 | 14.00680 | 27424 ft | 418 kts | 115° |
| 2026-05-05 12:51 | 49.02865 | 14.04744 | 27060 ft | 415 kts | 115° |
| 2026-05-05 12:51 | 49.01746 | 14.08779 | 26699 ft | 412 kts | 115° |
| 2026-05-05 12:51 | 49.00636 | 14.12788 | 26345 ft | 409 kts | 115° |
| 2026-05-05 12:51 | 48.99535 | 14.16763 | 25993 ft | 407 kts | 115° |
| 2026-05-05 12:52 | 48.98438 | 14.20720 | 25632 ft | 404 kts | 115° |
| 2026-05-05 12:52 | 48.97344 | 14.24648 | 25288 ft | 402 kts | 115° |
| 2026-05-05 12:52 | 48.96253 | 14.28549 | 24948 ft | 399 kts | 115° |
| 2026-05-05 12:52 | 48.95103 | 14.32375 | 24612 ft | 396 kts | 121° |
| 2026-05-05 12:53 | 48.93666 | 14.35903 | 24276 ft | 391 kts | 128° |
| 2026-05-05 12:53 | 48.92019 | 14.39171 | 23956 ft | 388 kts | 130° |
| 2026-05-05 12:53 | 48.90378 | 14.42413 | 23654 ft | 386 kts | 130° |
| 2026-05-05 12:53 | 48.88750 | 14.45648 | 23356 ft | 384 kts | 129° |
| 2026-05-05 12:54 | 48.85522 | 14.52061 | 22650 ft | 380 kts | 130° |
| 2026-05-05 12:54 | 48.83917 | 14.55236 | 22305 ft | 378 kts | 130° |
| 2026-05-05 12:54 | 48.82316 | 14.58398 | 21953 ft | 377 kts | 129° |
| 2026-05-05 12:55 | 48.80718 | 14.61551 | 21608 ft | 376 kts | 130° |
| 2026-05-05 12:55 | 48.79124 | 14.64685 | 21271 ft | 374 kts | 130° |
| 2026-05-05 12:55 | 48.77535 | 14.67798 | 20946 ft | 372 kts | 130° |
| 2026-05-05 12:55 | 48.75954 | 14.70895 | 20618 ft | 371 kts | 130° |
| 2026-05-05 12:56 | 48.74380 | 14.73980 | 20296 ft | 369 kts | 130° |
| 2026-05-05 12:56 | 48.72814 | 14.77045 | 19975 ft | 367 kts | 130° |
| 2026-05-05 12:56 | 48.71252 | 14.80095 | 19660 ft | 366 kts | 130° |
| 2026-05-05 12:56 | 48.69696 | 14.83127 | 19345 ft | 364 kts | 130° |
| 2026-05-05 12:57 | 48.68145 | 14.86148 | 19034 ft | 362 kts | 130° |
| 2026-05-05 12:57 | 48.66603 | 14.89149 | 18734 ft | 361 kts | 130° |
| 2026-05-05 12:57 | 48.65063 | 14.92145 | 18422 ft | 359 kts | 130° |
| 2026-05-05 12:57 | 48.63530 | 14.95121 | 18105 ft | 359 kts | 130° |
| 2026-05-05 12:58 | 48.62001 | 14.98093 | 17761 ft | 358 kts | 130° |
| 2026-05-05 12:58 | 48.60480 | 15.01056 | 17414 ft | 356 kts | 129° |
| 2026-05-05 12:58 | 48.59183 | 15.04240 | 17071 ft | 357 kts | 118° |
| 2026-05-05 12:58 | 48.58284 | 15.07731 | 16735 ft | 357 kts | 108° |
| 2026-05-05 12:59 | 48.57668 | 15.11359 | 16402 ft | 356 kts | 106° |
| 2026-05-05 12:59 | 48.57054 | 15.14978 | 16070 ft | 355 kts | 106° |
| 2026-05-05 12:59 | 48.56435 | 15.18574 | 15741 ft | 353 kts | 107° |
| 2026-05-05 13:00 | 48.55196 | 15.25706 | 15099 ft | 349 kts | 106° |
| 2026-05-05 13:00 | 48.54580 | 15.29246 | 14783 ft | 348 kts | 107° |
| 2026-05-05 13:01 | 48.52739 | 15.39789 | 13841 ft | 345 kts | 106° |
| 2026-05-05 13:01 | 48.52144 | 15.43289 | 13529 ft | 345 kts | 104° |
| 2026-05-05 13:01 | 48.51847 | 15.46875 | 13184 ft | 344 kts | 96° |
| 2026-05-05 13:01 | 48.51655 | 15.50451 | 12848 ft | 341 kts | 96° |
| 2026-05-05 13:02 | 48.51462 | 15.54004 | 12505 ft | 339 kts | 97° |
| 2026-05-05 13:02 | 48.51267 | 15.57535 | 12162 ft | 337 kts | 97° |
| 2026-05-05 13:02 | 48.51069 | 15.61037 | 11833 ft | 334 kts | 97° |
| 2026-05-05 13:02 | 48.50870 | 15.64514 | 11506 ft | 332 kts | 97° |
| 2026-05-05 13:03 | 48.50668 | 15.67974 | 11179 ft | 330 kts | 98° |
| 2026-05-05 13:03 | 48.50467 | 15.71406 | 10859 ft | 327 kts | 97° |
| 2026-05-05 13:03 | 48.50267 | 15.74809 | 10534 ft | 325 kts | 97° |
| 2026-05-05 13:03 | 48.50069 | 15.78190 | 10217 ft | 321 kts | 97° |
| 2026-05-05 13:04 | 48.49873 | 15.81530 | 9910 ft | 318 kts | 97° |
| 2026-05-05 13:04 | 48.49678 | 15.84837 | 9588 ft | 314 kts | 98° |
| 2026-05-05 13:04 | 48.49484 | 15.88085 | 9247 ft | 309 kts | 98° |
| 2026-05-05 13:04 | 48.49293 | 15.91284 | 8915 ft | 304 kts | 98° |
| 2026-05-05 13:05 | 48.49104 | 15.94427 | 8572 ft | 298 kts | 98° |
| 2026-05-05 13:05 | 48.48915 | 15.97520 | 8243 ft | 294 kts | 98° |
| 2026-05-05 13:05 | 48.48729 | 16.00562 | 7912 ft | 290 kts | 98° |
| 2026-05-05 13:05 | 48.48544 | 16.03565 | 7591 ft | 285 kts | 98° |
| 2026-05-05 13:06 | 48.48069 | 16.06407 | 7320 ft | 274 kts | 117° |
| 2026-05-05 13:06 | 48.47061 | 16.08750 | 7172 ft | 263 kts | 135° |
| 2026-05-05 13:06 | 48.45664 | 16.10469 | 7028 ft | 258 kts | 152° |
| 2026-05-05 13:06 | 48.44013 | 16.11457 | 6875 ft | 255 kts | 168° |
| 2026-05-05 13:07 | 48.42288 | 16.12081 | 6740 ft | 255 kts | 168° |
| 2026-05-05 13:07 | 48.40566 | 16.12713 | 6593 ft | 255 kts | 167° |
| 2026-05-05 13:07 | 48.38850 | 16.13347 | 6444 ft | 251 kts | 169° |
| 2026-05-05 13:07 | 48.37182 | 16.13968 | 6294 ft | 245 kts | 169° |
| 2026-05-05 13:08 | 48.35529 | 16.14580 | 6151 ft | 245 kts | 169° |
| 2026-05-05 13:08 | 48.33869 | 16.15192 | 5998 ft | 246 kts | 169° |
| 2026-05-05 13:08 | 48.32207 | 16.15805 | 5847 ft | 245 kts | 169° |
| 2026-05-05 13:08 | 48.30555 | 16.16413 | 5706 ft | 243 kts | 169° |
| 2026-05-05 13:09 | 48.28923 | 16.17011 | 5546 ft | 241 kts | 170° |
| 2026-05-05 13:09 | 48.27319 | 16.17597 | 5310 ft | 233 kts | 169° |
| 2026-05-05 13:09 | 48.25767 | 16.18165 | 5070 ft | 227 kts | 169° |
| 2026-05-05 13:09 | 48.24259 | 16.18797 | 4804 ft | 225 kts | 160° |
| 2026-05-05 13:10 | 48.23022 | 16.20268 | 4521 ft | 233 kts | 132° |
| 2026-05-05 13:10 | 48.22260 | 16.22416 | 4178 ft | 232 kts | 122° |
| 2026-05-05 13:10 | 48.21572 | 16.24575 | 3816 ft | 226 kts | 122° |
| 2026-05-05 13:10 | 48.20910 | 16.26645 | 3457 ft | 214 kts | 122° |
| 2026-05-05 13:11 | 48.20282 | 16.28598 | 3144 ft | 202 kts | 121° |
| 2026-05-05 13:11 | 48.19688 | 16.30441 | 2768 ft | 191 kts | 122° |
| 2026-05-05 13:11 | 48.19139 | 16.32152 | 2656 ft | 172 kts | 122° |
| 2026-05-05 13:11 | 48.18644 | 16.33691 | 2598 ft | 157 kts | 124° |
| 2026-05-05 13:12 | 48.18176 | 16.35136 | 2542 ft | 153 kts | 123° |
| 2026-05-05 13:12 | 48.17719 | 16.36547 | 2493 ft | 149 kts | 125° |
| 2026-05-05 13:12 | 48.17274 | 16.37923 | 2453 ft | 145 kts | 124° |
| 2026-05-05 13:12 | 48.16840 | 16.39266 | 2419 ft | 142 kts | 124° |
| 2026-05-05 13:13 | 48.16410 | 16.40595 | 2379 ft | 142 kts | 122° |
| 2026-05-05 13:13 | 48.15980 | 16.41921 | 2261 ft | 141 kts | 125° |
| 2026-05-05 13:13 | 48.15553 | 16.43240 | 2085 ft | 142 kts | 124° |
| 2026-05-05 13:13 | 48.15123 | 16.44570 | 1875 ft | 141 kts | 124° |
| 2026-05-05 13:14 | 48.14700 | 16.45876 | 1694 ft | 140 kts | 127° |
| 2026-05-05 13:14 | 48.14266 | 16.47211 | 1506 ft | 144 kts | 125° |
| 2026-05-05 13:14 | 48.13828 | 16.48563 | 1334 ft | 145 kts | 125° |
| 2026-05-05 13:14 | 48.13403 | 16.49880 | 1142 ft | 136 kts | 125° |
| 2026-05-05 13:15 | 48.12991 | 16.51149 | 958 ft | 134 kts | 124° |
| 2026-05-05 13:15 | 48.12610 | 16.52383 | 802 ft | 126 kts | 126° |
| 2026-05-05 13:15 | 48.12228 | 16.53531 | 636 ft | 119 kts | 128° |
| 2026-05-05 13:15 | 48.11899 | 16.54480 | 615 ft | 86 kts | 116° |
| 2026-05-05 13:16 | 48.11675 | 16.55178 | 606 ft | 64 kts | 115° |
| 2026-05-05 13:16 | 48.11509 | 16.55705 | 617 ft | 50 kts | 116° |
| 2026-05-05 13:16 | 48.11359 | 16.56142 | 612 ft | 45 kts | 116° |
| 2026-05-05 13:16 | 48.11294 | 16.56556 | 616 ft | 40 kts | 81° |
| 2026-05-05 13:17 | 48.11363 | 16.56792 | 607 ft | 17 kts | 12° |
| 2026-05-05 13:17 | 48.11473 | 16.56875 | 606 ft | 18 kts | 27° |
| 2026-05-05 13:17 | 48.11558 | 16.56984 | 612 ft | 12 kts | 104° |
| 2026-05-05 13:17 | 48.11523 | 16.57085 | 612 ft | 11 kts | 115° |
| 2026-05-05 13:18 | 48.11492 | 16.57176 | 612 ft | 7 kts | 134° |
| 2026-05-05 13:18 | 48.11475 | 16.57165 | 611 ft | 2 kts | 206° |
| 2026-05-05 13:18 | 48.11464 | 16.57157 | 609 ft | 2 kts | 206° |
| 2026-05-05 13:18 | 48.11448 | 16.57146 | 619 ft | 3 kts | 206° |
| 2026-05-05 13:19 | 48.11429 | 16.57131 | 614 ft | 0 kts | 205° |